Portada
METAR-TAF:

METAR-TAF

Aeroports :

Cross City, Florida, Estats Units d'Amèrica

latitud: 29-33-00N, longitud: 083-06-19W, altitud: 12 m

Observació

L'informe es va fer fa 13 minuts, a les 06:35 UTC
Vent calma
Temperatura 23°C
Humitat 94%
Pressió 1015 hPa
Visibilitat: 16.1 km
Cel clar

METAR: KCTY 160635Z AUTO 00000KT 10SM CLR 23/22 A2997 RMK AO2 T02260220

Hora: 02:48 (06:48 UTC)


TAF: manca

Observacions i pronòstics meteorològics de més de 4000 aeroports (METAR i TAF).

Les estacions disponibles són els punts grocs i vermells al mapa.

Posi el ratolí al punt desitjat per veure el nom de l'estació.

Feu clic per veure les observacions i els pronòstics meteorològics.

Per canviar el mapa: feu clic els botons verds amb una creu de color negre per apropar; al botó verd amb un guió per allunyar la imatge; o en les fletxes verdes per a mapes adjacents.


METAR-TAF: